createdAt,value
2022-11-13T00:02:29.860Z,72.98
2022-11-13T00:04:54.035Z,72.81
2022-11-13T00:07:25.786Z,72.42
2022-11-13T00:09:54.794Z,72.48
2022-11-13T00:12:19.119Z,72.47
2022-11-13T00:14:43.032Z,72.75
2022-11-13T00:17:09.914Z,72.84
2022-11-13T00:19:34.582Z,72.76
2022-11-13T00:22:00.460Z,73.03
2022-11-13T00:24:25.368Z,72.55
2022-11-13T00:26:55.982Z,73.03
2022-11-13T00:29:20.158Z,72.91
2022-11-13T00:31:45.074Z,73.19
2022-11-13T00:34:33.028Z,73.20
2022-11-13T00:36:53.638Z,73.29
2022-11-13T00:39:17.613Z,72.53
2022-11-13T00:41:41.795Z,72.25
2022-11-13T00:44:09.566Z,72.35
2022-11-13T00:46:40.450Z,72.24
2022-11-13T00:49:04.625Z,72.40
2022-11-13T00:51:29.228Z,72.30
2022-11-13T00:53:53.201Z,72.88
2022-11-13T00:56:17.534Z,72.28
2022-11-13T00:58:47.735Z,72.05
2022-11-13T01:01:24.969Z,72.29
2022-11-13T01:03:50.005Z,71.81
2022-11-13T01:06:19.756Z,71.46
2022-11-13T01:08:44.572Z,71.68
2022-11-13T01:11:19.736Z,71.53
2022-11-13T01:13:48.604Z,71.96
2022-11-13T01:16:14.961Z,72.26
2022-11-13T01:18:49.470Z,71.79
2022-11-13T01:21:15.837Z,71.79
2022-11-13T01:23:45.294Z,72.02
2022-11-13T01:26:14.851Z,72.08
2022-11-13T01:28:38.830Z,72.17
2022-11-13T01:31:03.854Z,72.32
2022-11-13T01:33:31.993Z,72.38
2022-11-13T01:36:06.612Z,72.21
2022-11-13T01:38:35.903Z,71.77
2022-11-13T01:41:00.225Z,72.44
2022-11-13T01:43:32.195Z,72.43
2022-11-13T01:46:18.934Z,72.62
2022-11-13T01:48:50.744Z,72.85
2022-11-13T01:51:37.896Z,72.96
2022-11-13T01:54:05.538Z,72.55
2022-11-13T01:56:30.428Z,72.63
2022-11-13T01:59:01.731Z,72.89
2022-11-13T02:01:25.963Z,72.96
2022-11-13T02:03:51.045Z,72.91
2022-11-13T02:06:16.512Z,72.74
2022-11-13T02:08:43.895Z,72.53
2022-11-13T02:11:11.212Z,72.47
2022-11-13T02:13:38.097Z,72.52
2022-11-13T02:16:02.881Z,72.18
2022-11-13T02:18:35.298Z,72.14
2022-11-13T02:21:13.369Z,72.24
2022-11-13T02:23:51.322Z,72.20
2022-11-13T02:26:24.293Z,72.16
2022-11-13T02:28:48.078Z,71.97
2022-11-13T02:31:15.393Z,72.16
2022-11-13T02:33:40.372Z,72.48
2022-11-13T02:36:13.359Z,71.96
2022-11-13T02:38:40.116Z,72.28
2022-11-13T02:41:05.142Z,71.96
2022-11-13T02:43:33.518Z,72.47
2022-11-13T02:45:57.894Z,72.89
2022-11-13T02:48:22.740Z,73.26
2022-11-13T02:50:47.190Z,73.96
2022-11-13T02:53:11.455Z,74.57
2022-11-13T02:55:36.697Z,75.20
2022-11-13T02:58:00.736Z,75.76
2022-11-13T03:00:28.073Z,75.63
2022-11-13T03:02:56.021Z,75.84
2022-11-13T03:05:20.289Z,76.27
2022-11-13T03:07:46.351Z,76.25
2022-11-13T03:10:22.474Z,76.07
2022-11-13T03:12:46.633Z,76.48
2022-11-13T03:15:12.385Z,76.14
2022-11-13T03:17:39.815Z,75.96
2022-11-13T03:20:04.612Z,76.10
2022-11-13T03:22:29.095Z,76.33
2022-11-13T03:24:53.743Z,76.91
2022-11-13T03:27:17.799Z,77.08
2022-11-13T03:29:41.964Z,76.76
2022-11-13T03:32:16.685Z,77.43
2022-11-13T03:34:43.576Z,77.38
2022-11-13T03:37:07.818Z,77.55
2022-11-13T03:39:33.238Z,77.46
2022-11-13T03:42:00.623Z,76.45
2022-11-13T03:44:28.458Z,76.31
2022-11-13T03:46:53.231Z,76.21
2022-11-13T03:49:23.576Z,76.05
2022-11-13T03:51:51.045Z,76.12
2022-11-13T03:54:15.791Z,76.11
2022-11-13T03:56:39.951Z,76.00
2022-11-13T03:59:04.164Z,75.46
2022-11-13T04:01:29.047Z,75.34
2022-11-13T04:03:52.883Z,75.64
2022-11-13T04:06:17.734Z,75.01
2022-11-13T04:08:45.466Z,75.15
2022-11-13T04:11:11.164Z,75.06
2022-11-13T04:13:34.945Z,75.30
2022-11-13T04:15:59.832Z,74.71
2022-11-13T04:18:23.810Z,74.37
2022-11-13T04:20:48.016Z,74.39
2022-11-13T04:23:14.507Z,74.14
2022-11-13T04:25:43.165Z,74.49
2022-11-13T04:28:07.296Z,73.86
2022-11-13T04:30:32.319Z,73.91
2022-11-13T04:32:57.507Z,74.34
2022-11-13T04:35:22.486Z,74.19
2022-11-13T04:37:49.513Z,74.60
2022-11-13T04:40:14.676Z,74.45
2022-11-13T04:42:50.362Z,74.55
2022-11-13T04:45:15.412Z,74.07
2022-11-13T04:47:40.344Z,73.87
2022-11-13T04:50:06.866Z,73.60
2022-11-13T04:52:31.950Z,73.83
2022-11-13T04:54:55.748Z,74.00
2022-11-13T04:57:19.829Z,73.84
2022-11-13T04:59:47.164Z,73.92
2022-11-13T05:02:11.226Z,74.43
2022-11-13T05:04:35.206Z,74.21
2022-11-13T05:07:00.118Z,74.00
2022-11-13T05:09:25.957Z,73.80
2022-11-13T05:11:50.221Z,73.78
2022-11-13T05:14:15.708Z,73.89
2022-11-13T05:16:42.313Z,73.70
2022-11-13T05:19:08.280Z,73.84
2022-11-13T05:21:33.039Z,73.47
2022-11-13T05:23:57.173Z,73.91
2022-11-13T05:26:21.511Z,74.23
2022-11-13T05:28:49.625Z,74.22
2022-11-13T05:31:16.363Z,73.89
2022-11-13T05:33:44.871Z,74.23
2022-11-13T05:36:12.252Z,75.38
2022-11-13T05:38:37.021Z,75.78
2022-11-13T05:41:05.879Z,76.08
2022-11-13T05:43:30.781Z,76.39
2022-11-13T05:45:55.107Z,76.31
2022-11-13T05:48:19.261Z,76.68
2022-11-13T05:50:46.775Z,76.08
2022-11-13T05:53:10.696Z,76.10
2022-11-13T05:55:34.755Z,75.96
2022-11-13T05:58:01.781Z,76.02
2022-11-13T06:00:26.248Z,75.87
2022-11-13T06:02:50.145Z,75.88
2022-11-13T06:05:15.219Z,76.18
2022-11-13T06:07:41.913Z,76.21
2022-11-13T06:10:06.399Z,76.66
2022-11-13T06:12:32.679Z,76.39
2022-11-13T06:14:56.876Z,76.05
2022-11-13T06:17:20.896Z,75.68
2022-11-13T06:19:45.662Z,75.21
2022-11-13T06:22:09.598Z,75.47
2022-11-13T06:24:36.065Z,75.48
2022-11-13T06:27:01.077Z,75.45
2022-11-13T06:29:24.980Z,75.36
2022-11-13T06:31:49.061Z,75.72
2022-11-13T06:34:14.038Z,76.27
2022-11-13T06:36:40.509Z,76.76
2022-11-13T06:39:05.139Z,76.88
2022-11-13T06:41:33.354Z,76.05
2022-11-13T06:44:02.062Z,76.02
2022-11-13T06:46:29.899Z,76.07
2022-11-13T06:48:54.643Z,76.04
2022-11-13T06:51:21.050Z,76.33
2022-11-13T06:53:45.363Z,76.31
2022-11-13T06:56:11.756Z,76.43
2022-11-13T06:58:39.186Z,76.29
2022-11-13T07:01:08.801Z,75.97
2022-11-13T07:03:33.601Z,76.26
2022-11-13T07:05:57.644Z,75.67
2022-11-13T07:08:22.023Z,75.47
2022-11-13T07:10:47.412Z,75.82
2022-11-13T07:13:11.742Z,75.73
2022-11-13T07:15:41.042Z,76.04
2022-11-13T07:18:08.252Z,75.88
2022-11-13T07:20:32.178Z,76.16
2022-11-13T07:22:58.620Z,75.95
2022-11-13T07:25:23.696Z,75.55
2022-11-13T07:27:48.220Z,75.22
2022-11-13T07:30:13.251Z,74.48
2022-11-13T07:32:40.767Z,74.03
2022-11-13T07:35:04.690Z,74.08
2022-11-13T07:37:30.172Z,74.30
2022-11-13T07:39:55.356Z,73.38
2022-11-13T07:42:19.643Z,73.81
2022-11-13T07:44:59.153Z,73.51
2022-11-13T07:47:24.252Z,73.69
2022-11-13T07:49:51.017Z,73.39
2022-11-13T07:52:15.164Z,73.10
2022-11-13T07:54:39.879Z,73.33
2022-11-13T07:57:04.803Z,73.30
2022-11-13T07:59:28.901Z,73.73
2022-11-13T08:01:53.911Z,74.12
2022-11-13T08:04:18.030Z,74.66
2022-11-13T08:06:44.548Z,74.95
2022-11-13T08:09:09.610Z,75.32
2022-11-13T08:11:33.397Z,75.42
2022-11-13T08:13:57.281Z,76.19
2022-11-13T08:16:23.596Z,76.63
2022-11-13T08:18:47.788Z,76.70
2022-11-13T08:21:14.867Z,76.24
2022-11-13T08:23:44.114Z,76.95
2022-11-13T08:26:09.267Z,76.54
2022-11-13T08:28:33.136Z,76.47
2022-11-13T08:30:57.795Z,76.78
2022-11-13T08:33:22.154Z,77.12
2022-11-13T08:35:45.938Z,77.01
2022-11-13T08:38:12.191Z,76.28
2022-11-13T08:40:39.496Z,75.61
2022-11-13T08:43:03.821Z,74.94
2022-11-13T08:45:29.142Z,74.73
2022-11-13T08:47:53.454Z,75.03
2022-11-13T08:50:17.610Z,75.49
2022-11-13T08:52:42.640Z,74.66
2022-11-13T08:55:07.037Z,74.73
2022-11-13T08:57:44.155Z,74.95
2022-11-13T09:00:10.415Z,74.80
2022-11-13T09:02:36.749Z,75.17
2022-11-13T09:05:06.899Z,75.51
2022-11-13T09:07:31.754Z,74.99
2022-11-13T09:09:57.938Z,74.31
2022-11-13T09:12:22.160Z,74.61
2022-11-13T09:14:49.505Z,75.20
2022-11-13T09:17:16.426Z,75.65
2022-11-13T09:19:40.644Z,75.04
2022-11-13T09:22:05.734Z,75.03
2022-11-13T09:24:29.888Z,73.98
2022-11-13T09:26:53.810Z,74.07
2022-11-13T09:29:18.527Z,73.29
2022-11-13T09:31:45.180Z,73.26
2022-11-13T09:34:20.818Z,73.39
2022-11-13T09:36:45.083Z,73.52
2022-11-13T09:39:14.278Z,73.71
2022-11-13T09:41:53.128Z,73.96
2022-11-13T09:44:23.435Z,73.83
2022-11-13T09:46:56.925Z,73.82
2022-11-13T09:49:28.680Z,73.98
2022-11-13T09:51:56.912Z,74.06
2022-11-13T09:54:26.490Z,73.69
2022-11-13T09:57:05.127Z,74.17
2022-11-13T09:59:37.868Z,74.40
2022-11-13T10:02:20.007Z,73.08
2022-11-13T10:05:04.045Z,72.81
2022-11-13T10:07:46.576Z,72.81
2022-11-13T10:10:35.108Z,73.00
2022-11-13T10:13:15.499Z,72.60
2022-11-13T10:15:50.412Z,72.02
2022-11-13T10:18:24.109Z,71.44
2022-11-13T10:20:54.817Z,71.30
2022-11-13T10:23:24.884Z,71.10
2022-11-13T10:25:51.593Z,72.03
2022-11-13T10:28:48.806Z,70.87
2022-11-13T10:31:17.656Z,71.39
2022-11-13T10:33:45.453Z,71.20
2022-11-13T10:36:27.954Z,70.51
2022-11-13T10:39:08.511Z,70.67
2022-11-13T10:41:32.859Z,70.64
2022-11-13T10:44:02.498Z,71.67
2022-11-13T10:46:30.073Z,71.09
2022-11-13T10:49:21.148Z,70.52
2022-11-13T10:51:45.405Z,70.75
2022-11-13T10:54:26.210Z,70.12
2022-11-13T10:57:01.117Z,70.50
2022-11-13T10:59:26.693Z,70.53
2022-11-13T11:01:52.033Z,70.05
2022-11-13T11:04:28.348Z,70.09
2022-11-13T11:07:18.962Z,69.18
2022-11-13T11:09:43.469Z,68.83
2022-11-13T11:12:30.290Z,68.71
2022-11-13T11:15:19.629Z,68.44
2022-11-13T11:17:50.274Z,67.83
2022-11-13T11:20:28.520Z,66.93
2022-11-13T11:23:01.082Z,66.86
2022-11-13T11:25:39.115Z,66.85
2022-11-13T11:28:12.870Z,67.79
2022-11-13T11:30:47.282Z,68.28
2022-11-13T11:33:21.764Z,68.21
2022-11-13T11:35:53.270Z,68.50
2022-11-13T11:38:28.920Z,69.24
2022-11-13T11:41:00.016Z,69.55
2022-11-13T11:43:36.052Z,69.38
2022-11-13T11:46:00.549Z,69.58
2022-11-13T11:48:31.749Z,69.35
2022-11-13T11:51:11.131Z,69.46
2022-11-13T11:53:48.109Z,68.83
2022-11-13T11:56:26.746Z,68.65
2022-11-13T11:59:08.830Z,67.89
2022-11-13T12:01:49.093Z,67.80
2022-11-13T12:04:33.690Z,68.32
2022-11-13T12:07:16.839Z,68.24
2022-11-13T12:09:54.314Z,68.85
2022-11-13T12:12:35.216Z,68.27
2022-11-13T12:15:07.718Z,67.67
2022-11-13T12:17:51.509Z,67.46
2022-11-13T12:20:29.729Z,67.55
2022-11-13T12:23:06.821Z,67.22
2022-11-13T12:25:42.865Z,66.95
2022-11-13T12:28:20.753Z,66.94
2022-11-13T12:30:56.683Z,66.82
2022-11-13T12:33:31.663Z,67.00
2022-11-13T12:35:57.479Z,67.00
2022-11-13T12:38:36.608Z,67.71
2022-11-13T12:41:12.394Z,68.14
2022-11-13T12:44:16.819Z,68.42
2022-11-13T12:46:44.559Z,69.34
2022-11-13T12:49:28.244Z,69.11
2022-11-13T12:51:58.355Z,69.42
2022-11-13T12:54:32.116Z,69.40
2022-11-13T12:57:07.626Z,69.22
2022-11-13T12:59:37.165Z,68.64
2022-11-13T13:02:24.844Z,68.34
2022-11-13T13:05:08.199Z,68.28
2022-11-13T13:07:55.156Z,67.93
2022-11-13T13:10:32.261Z,68.25
2022-11-13T13:13:11.205Z,67.45
2022-11-13T13:15:40.988Z,67.69
2022-11-13T13:18:09.560Z,68.01
2022-11-13T13:20:38.301Z,67.74
2022-11-13T13:23:08.425Z,67.56
2022-11-13T13:25:39.102Z,67.86
2022-11-13T13:28:06.062Z,68.06
2022-11-13T13:30:31.916Z,68.16
2022-11-13T13:33:16.292Z,68.07
2022-11-13T13:35:51.327Z,67.79
2022-11-13T13:38:25.243Z,68.06
2022-11-13T13:41:12.002Z,68.89
2022-11-13T13:43:54.855Z,69.37
2022-11-13T13:46:28.384Z,69.93
2022-11-13T13:48:58.526Z,70.27
2022-11-13T13:51:31.418Z,70.00
2022-11-13T13:53:59.275Z,69.90
2022-11-13T13:56:27.217Z,70.41
2022-11-13T13:58:57.850Z,70.53
2022-11-13T14:01:31.391Z,71.03
2022-11-13T14:04:07.005Z,70.97
2022-11-13T14:06:31.782Z,71.17
2022-11-13T14:08:55.685Z,71.08
2022-11-13T14:11:22.605Z,71.39
2022-11-13T14:13:49.982Z,71.48
2022-11-13T14:16:14.419Z,72.20
2022-11-13T14:18:38.996Z,72.34
2022-11-13T14:21:07.846Z,72.53
2022-11-13T14:23:37.140Z,72.40
2022-11-13T14:26:02.171Z,72.50
2022-11-13T14:28:31.017Z,72.52
2022-11-13T14:31:02.703Z,72.85
2022-11-13T14:33:33.447Z,73.13
2022-11-13T14:36:00.197Z,73.59
2022-11-13T14:38:28.136Z,73.74
2022-11-13T14:40:53.817Z,73.83
2022-11-13T14:43:23.843Z,73.80
2022-11-13T14:46:00.719Z,73.56
2022-11-13T14:48:28.109Z,73.77
2022-11-13T14:50:55.146Z,73.71
2022-11-13T14:53:31.246Z,74.09
2022-11-13T14:55:58.708Z,74.31
2022-11-13T14:58:30.798Z,74.50
2022-11-13T15:00:54.729Z,74.40
2022-11-13T15:03:22.111Z,74.48
2022-11-13T15:05:47.036Z,74.49
2022-11-13T15:08:16.896Z,74.69
2022-11-13T15:10:42.666Z,75.42
2022-11-13T15:13:16.014Z,76.18
2022-11-13T15:15:40.163Z,76.39
2022-11-13T15:18:06.015Z,76.40
2022-11-13T15:20:34.602Z,76.51
2022-11-13T15:23:01.928Z,76.43
2022-11-13T15:25:28.505Z,76.52
2022-11-13T15:27:53.479Z,76.44
2022-11-13T15:30:19.917Z,76.34
2022-11-13T15:32:53.456Z,76.46
2022-11-13T15:35:20.475Z,76.59
2022-11-13T15:37:48.509Z,76.70
2022-11-13T15:40:14.258Z,77.00
2022-11-13T15:42:39.388Z,76.79
2022-11-13T15:45:06.162Z,77.09
2022-11-13T15:47:32.624Z,76.78
2022-11-13T15:50:13.011Z,76.80
2022-11-13T15:52:42.312Z,76.79
2022-11-13T15:55:21.266Z,76.02
2022-11-13T15:57:46.461Z,75.64
2022-11-13T16:00:17.207Z,75.86
2022-11-13T16:02:41.583Z,76.14
2022-11-13T16:05:06.442Z,75.99
2022-11-13T16:07:32.187Z,76.26
2022-11-13T16:09:58.392Z,76.38
2022-11-13T16:12:25.781Z,76.37
2022-11-13T16:14:49.646Z,76.66
2022-11-13T16:17:16.821Z,76.84
2022-11-13T16:19:43.837Z,76.47
2022-11-13T16:22:19.443Z,76.46
2022-11-13T16:24:44.985Z,76.86
2022-11-13T16:27:09.059Z,76.89
2022-11-13T16:29:35.566Z,77.38
2022-11-13T16:32:00.595Z,77.48
2022-11-13T16:34:24.429Z,77.22
2022-11-13T16:36:49.607Z,77.30
2022-11-13T16:39:19.194Z,77.26
2022-11-13T16:41:43.119Z,77.23
2022-11-13T16:44:07.433Z,77.36
2022-11-13T16:46:37.558Z,77.34
2022-11-13T16:49:02.017Z,77.20
2022-11-13T16:51:26.746Z,77.55
2022-11-13T16:53:52.113Z,77.78
2022-11-13T16:56:18.893Z,77.82
2022-11-13T16:58:42.871Z,77.79
2022-11-13T17:01:08.596Z,78.16
2022-11-13T17:03:35.211Z,78.27
2022-11-13T17:05:59.674Z,78.17
2022-11-13T17:08:24.720Z,77.88
2022-11-13T17:10:48.903Z,77.63
2022-11-13T17:13:13.100Z,78.02
2022-11-13T17:15:37.775Z,77.94
2022-11-13T17:18:05.299Z,78.08
2022-11-13T17:20:32.151Z,77.82
2022-11-13T17:22:57.304Z,77.66
2022-11-13T17:25:23.506Z,77.92
2022-11-13T17:27:47.945Z,77.87
2022-11-13T17:30:14.983Z,77.98
2022-11-13T17:32:38.933Z,77.91
2022-11-13T17:35:02.997Z,77.81
2022-11-13T17:37:30.420Z,77.77
2022-11-13T17:39:54.402Z,77.62
2022-11-13T17:42:18.567Z,77.56
2022-11-13T17:44:44.402Z,77.78
2022-11-13T17:47:08.409Z,77.90
2022-11-13T17:49:32.554Z,77.55
2022-11-13T17:51:57.527Z,77.28
2022-11-13T17:54:25.476Z,76.88
2022-11-13T17:56:49.626Z,76.98
2022-11-13T17:59:14.541Z,77.19
2022-11-13T18:01:38.565Z,77.21
2022-11-13T18:04:03.014Z,77.26
2022-11-13T18:06:28.878Z,77.17
2022-11-13T18:08:56.075Z,76.97
2022-11-13T18:11:31.172Z,77.47
2022-11-13T18:13:56.314Z,77.28
2022-11-13T18:16:22.350Z,77.04
2022-11-13T18:18:55.642Z,76.92
2022-11-13T18:21:23.678Z,76.59
2022-11-13T18:23:48.596Z,76.09
2022-11-13T18:26:15.270Z,76.03
2022-11-13T18:28:55.110Z,75.78
2022-11-13T18:31:23.744Z,76.00
2022-11-13T18:33:54.052Z,75.66
2022-11-13T18:36:18.168Z,75.90
2022-11-13T18:38:53.822Z,76.04
2022-11-13T18:41:20.497Z,76.08
2022-11-13T18:43:47.044Z,75.44
2022-11-13T18:46:17.532Z,75.83
2022-11-13T18:48:43.510Z,76.15
2022-11-13T18:51:10.657Z,76.21
2022-11-13T18:53:41.970Z,76.14
2022-11-13T18:56:26.727Z,76.04
2022-11-13T18:58:53.458Z,75.81
2022-11-13T19:01:25.385Z,75.37
2022-11-13T19:04:16.304Z,75.69
2022-11-13T19:06:42.578Z,76.19
2022-11-13T19:09:10.826Z,75.84
2022-11-13T19:11:43.626Z,75.38
2022-11-13T19:14:07.712Z,76.32
2022-11-13T19:16:36.425Z,76.97
2022-11-13T19:19:09.143Z,77.05
2022-11-13T19:21:35.947Z,77.22
2022-11-13T19:24:01.456Z,77.37
2022-11-13T19:26:26.967Z,76.99
2022-11-13T19:29:01.245Z,77.29
2022-11-13T19:31:31.410Z,76.73
2022-11-13T19:34:01.588Z,76.57
2022-11-13T19:36:28.536Z,76.81
2022-11-13T19:38:55.807Z,77.14
2022-11-13T19:41:24.454Z,77.69
2022-11-13T19:43:52.169Z,77.71
2022-11-13T19:46:22.371Z,77.42
2022-11-13T19:48:48.206Z,77.48
2022-11-13T19:51:31.728Z,76.99
2022-11-13T19:54:00.042Z,76.81
2022-11-13T19:56:28.572Z,76.68
2022-11-13T19:58:55.974Z,76.79
2022-11-13T20:01:23.662Z,76.56
2022-11-13T20:03:48.195Z,76.74
2022-11-13T20:06:30.375Z,76.34
2022-11-13T20:08:54.318Z,76.69
2022-11-13T20:11:18.337Z,76.30
2022-11-13T20:13:44.843Z,76.92
2022-11-13T20:16:11.316Z,76.55
2022-11-13T20:18:36.205Z,76.47
2022-11-13T20:21:01.772Z,76.82
2022-11-13T20:23:28.872Z,77.12
2022-11-13T20:25:57.852Z,77.41
2022-11-13T20:28:23.278Z,77.24
2022-11-13T20:30:47.424Z,77.13
2022-11-13T20:33:11.412Z,76.63
2022-11-13T20:35:36.441Z,76.63
2022-11-13T20:38:00.777Z,75.95
2022-11-13T20:40:27.753Z,75.95
2022-11-13T20:42:52.723Z,75.95
2022-11-13T20:45:16.895Z,75.78
2022-11-13T20:47:40.886Z,75.69
2022-11-13T20:50:05.983Z,76.09
2022-11-13T20:52:30.256Z,76.64
2022-11-13T20:54:54.420Z,77.04
2022-11-13T20:57:22.722Z,76.89
2022-11-13T20:59:46.933Z,76.95
2022-11-13T21:02:13.394Z,76.78
2022-11-13T21:04:38.588Z,76.43
2022-11-13T21:07:02.566Z,76.49
2022-11-13T21:09:26.620Z,76.59
2022-11-13T21:11:51.311Z,76.69
2022-11-13T21:14:18.038Z,76.37
2022-11-13T21:16:42.234Z,76.02
2022-11-13T21:19:09.855Z,75.38
2022-11-13T21:21:33.715Z,75.42
2022-11-13T21:23:59.593Z,75.01
2022-11-13T21:26:24.892Z,75.46
2022-11-13T21:28:49.208Z,75.36
2022-11-13T21:31:18.823Z,75.43
2022-11-13T21:33:48.606Z,75.54
2022-11-13T21:36:15.363Z,75.46
2022-11-13T21:38:39.402Z,75.19
2022-11-13T21:41:18.749Z,75.71
2022-11-13T21:43:42.643Z,75.88
2022-11-13T21:46:08.984Z,76.13
2022-11-13T21:48:36.083Z,76.64
2022-11-13T21:51:01.156Z,76.59
2022-11-13T21:53:26.248Z,76.75
2022-11-13T21:55:54.023Z,76.29
2022-11-13T21:58:17.893Z,76.47
2022-11-13T22:00:42.648Z,76.73
2022-11-13T22:03:07.022Z,76.97
2022-11-13T22:05:33.643Z,76.88
2022-11-13T22:07:58.259Z,76.61
2022-11-13T22:10:22.412Z,76.60
2022-11-13T22:12:46.365Z,76.46
2022-11-13T22:15:13.234Z,76.92
2022-11-13T22:17:37.226Z,77.22
2022-11-13T22:20:01.239Z,77.43
2022-11-13T22:22:28.787Z,78.03
2022-11-13T22:24:52.612Z,78.01
2022-11-13T22:27:17.874Z,78.48
2022-11-13T22:29:42.880Z,78.52
2022-11-13T22:32:09.214Z,78.91
2022-11-13T22:34:32.909Z,78.91
2022-11-13T22:36:57.918Z,78.54
2022-11-13T22:39:24.786Z,77.94
2022-11-13T22:41:52.256Z,77.82
2022-11-13T22:44:24.331Z,77.56
2022-11-13T22:46:50.263Z,76.83
2022-11-13T22:49:15.373Z,76.58
2022-11-13T22:51:42.934Z,76.32
2022-11-13T22:54:09.960Z,76.25
2022-11-13T22:56:38.539Z,75.88
2022-11-13T22:59:04.990Z,75.90
2022-11-13T23:01:31.467Z,76.23
2022-11-13T23:03:56.948Z,76.00
2022-11-13T23:06:24.185Z,75.95
2022-11-13T23:08:51.853Z,75.88
2022-11-13T23:11:18.350Z,75.59
2022-11-13T23:13:48.338Z,75.69
2022-11-13T23:16:14.304Z,75.83
2022-11-13T23:18:38.676Z,76.18
2022-11-13T23:21:03.537Z,76.80
2022-11-13T23:23:27.727Z,77.01
2022-11-13T23:25:51.642Z,77.40
2022-11-13T23:28:16.475Z,77.13
2022-11-13T23:30:42.916Z,77.15
2022-11-13T23:33:08.671Z,77.10
2022-11-13T23:35:33.508Z,76.89
2022-11-13T23:37:57.615Z,76.78
2022-11-13T23:40:21.547Z,77.09
2022-11-13T23:42:55.275Z,77.46
2022-11-13T23:45:19.963Z,77.91
2022-11-13T23:47:47.009Z,78.13
2022-11-13T23:50:12.658Z,78.31
2022-11-13T23:52:36.916Z,78.56
2022-11-13T23:55:01.109Z,78.53
2022-11-13T23:57:25.993Z,78.48
2022-11-13T23:59:50.221Z,77.97
